createdAt,value
2018-07-27T00:00:56.531Z,8.30
2018-07-27T00:03:24.841Z,6.33
2018-07-27T00:05:52.380Z,5.90
2018-07-27T00:08:20.991Z,5.60
2018-07-27T00:10:48.492Z,4.93
2018-07-27T00:13:17.138Z,5.90
2018-07-27T00:15:44.663Z,9.80
2018-07-27T00:18:13.088Z,10.90
2018-07-27T00:20:40.606Z,7.07
2018-07-27T00:23:09.185Z,8.43
2018-07-27T00:25:37.422Z,8.27
2018-07-27T00:28:05.295Z,7.03
2018-07-27T00:30:32.962Z,14.63
2018-07-27T00:33:00.403Z,6.80
2018-07-27T00:35:27.954Z,6.87
2018-07-27T00:37:56.007Z,9.20
2018-07-27T00:40:23.538Z,6.57
2018-07-27T00:42:51.629Z,8.67
2018-07-27T00:45:19.459Z,6.33
2018-07-27T00:47:46.978Z,6.20
2018-07-27T00:50:14.871Z,8.37
2018-07-27T00:52:42.359Z,18.43
2018-07-27T00:55:10.090Z,6.77
2018-07-27T00:57:39.130Z,6.93
2018-07-27T01:00:06.989Z,11.57
2018-07-27T01:02:34.522Z,10.60
2018-07-27T01:05:02.055Z,6.60
2018-07-27T01:07:29.586Z,6.53
2018-07-27T01:09:57.506Z,5.77
2018-07-27T01:12:26.463Z,7.20
2018-07-27T01:14:54.050Z,6.73
2018-07-27T01:17:22.146Z,6.57
2018-07-27T01:19:49.658Z,6.00
2018-07-27T01:22:17.598Z,6.53
2018-07-27T01:24:45.610Z,6.63
2018-07-27T01:27:13.098Z,5.00
2018-07-27T01:29:42.071Z,4.77
2018-07-27T01:32:09.506Z,5.63
2018-07-27T01:34:37.050Z,6.10
2018-07-27T01:37:04.858Z,5.10
2018-07-27T01:39:32.546Z,5.07
2018-07-27T01:42:00.135Z,7.00
2018-07-27T01:44:27.969Z,7.80
2018-07-27T01:46:55.498Z,5.73
2018-07-27T01:49:24.188Z,5.70
2018-07-27T01:51:51.736Z,5.10
2018-07-27T01:54:19.673Z,4.73
2018-07-27T01:56:47.855Z,5.17
2018-07-27T01:59:15.348Z,5.47
2018-07-27T02:01:42.850Z,5.23
2018-07-27T02:04:10.400Z,7.80
2018-07-27T02:06:37.906Z,7.73
2018-07-27T02:09:08.061Z,5.40
2018-07-27T02:11:35.986Z,8.77
2018-07-27T02:14:04.448Z,5.53
2018-07-27T02:16:32.003Z,5.80
2018-07-27T02:19:00.117Z,6.33
2018-07-27T02:21:28.034Z,11.10
2018-07-27T02:23:56.013Z,5.07
2018-07-27T02:26:23.864Z,5.93
2018-07-27T02:28:51.801Z,5.87
2018-07-27T02:31:19.322Z,7.10
2018-07-27T02:33:46.889Z,6.37
2018-07-27T02:36:14.411Z,5.00
2018-07-27T02:38:42.562Z,5.43
2018-07-27T02:41:10.098Z,7.23
2018-07-27T02:43:37.901Z,7.30
2018-07-27T02:46:05.745Z,6.80
2018-07-27T02:48:33.244Z,9.53
2018-07-27T02:51:01.397Z,11.17
2018-07-27T02:53:29.893Z,7.30
2018-07-27T02:55:57.711Z,9.53
2018-07-27T02:58:25.206Z,6.10
2018-07-27T03:00:52.720Z,6.30
2018-07-27T03:03:20.312Z,9.47
2018-07-27T03:05:47.792Z,13.53
2018-07-27T03:08:15.396Z,12.67
2018-07-27T03:10:42.942Z,8.53
2018-07-27T03:13:11.141Z,7.30
2018-07-27T03:15:38.670Z,7.30
2018-07-27T03:18:06.704Z,5.80
2018-07-27T03:20:34.198Z,6.20
2018-07-27T03:23:02.577Z,5.83
2018-07-27T03:25:30.664Z,5.40
2018-07-27T03:27:58.918Z,5.60
2018-07-27T03:30:26.427Z,5.80
2018-07-27T03:32:53.991Z,6.50
2018-07-27T03:35:21.527Z,7.80
2018-07-27T03:37:49.053Z,5.07
2018-07-27T03:40:16.692Z,6.87
2018-07-27T03:42:45.088Z,6.73
2018-07-27T03:45:12.850Z,6.80
2018-07-27T03:47:41.247Z,5.87
2018-07-27T03:50:09.106Z,7.30
2018-07-27T03:52:37.013Z,8.20
2018-07-27T03:55:04.938Z,5.30
2018-07-27T03:57:32.938Z,8.33
2018-07-27T04:00:00.858Z,4.47
2018-07-27T04:02:29.184Z,6.93
2018-07-27T04:04:56.693Z,8.93
2018-07-27T04:07:24.228Z,14.20
2018-07-27T04:09:52.105Z,12.23
2018-07-27T04:12:23.351Z,5.73
2018-07-27T04:14:51.664Z,4.97
2018-07-27T04:17:19.474Z,5.90
2018-07-27T04:19:46.976Z,6.00
2018-07-27T04:22:15.162Z,6.10
2018-07-27T04:24:43.303Z,6.33
2018-07-27T04:27:11.363Z,7.17
2018-07-27T04:29:39.343Z,8.20
2018-07-27T04:32:06.967Z,7.03
2018-07-27T04:34:34.481Z,6.70
2018-07-27T04:37:02.027Z,7.07
2018-07-27T04:39:29.555Z,12.50
2018-07-27T04:41:57.484Z,6.83
2018-07-27T04:44:25.361Z,7.00
2018-07-27T04:46:53.455Z,8.97
2018-07-27T04:49:20.990Z,9.90
2018-07-27T04:51:48.842Z,10.03
2018-07-27T04:54:16.936Z,7.83
2018-07-27T04:56:44.497Z,7.30
2018-07-27T04:59:12.510Z,11.27
2018-07-27T05:01:40.074Z,8.13
2018-07-27T05:04:08.248Z,6.70
2018-07-27T05:06:36.190Z,6.70
2018-07-27T05:09:11.786Z,7.40
2018-07-27T05:11:39.998Z,11.27
2018-07-27T05:14:08.000Z,5.93
2018-07-27T05:16:35.517Z,9.20
2018-07-27T05:19:03.032Z,7.67
2018-07-27T05:21:30.911Z,8.53
2018-07-27T05:23:58.500Z,7.30
2018-07-27T05:26:26.484Z,7.90
2018-07-27T05:28:54.595Z,8.10
2018-07-27T05:31:22.127Z,12.03
2018-07-27T05:33:49.638Z,7.60
2018-07-27T05:36:17.166Z,8.47
2018-07-27T05:38:45.275Z,8.00
2018-07-27T05:41:13.363Z,8.63
2018-07-27T05:43:41.326Z,8.20
2018-07-27T05:46:09.235Z,9.23
2018-07-27T05:48:37.119Z,8.23
2018-07-27T05:51:04.651Z,9.00
2018-07-27T05:53:32.802Z,7.60
2018-07-27T05:56:00.247Z,7.40
2018-07-27T05:58:29.180Z,8.13
2018-07-27T06:00:57.094Z,6.97
2018-07-27T06:03:24.987Z,6.20
2018-07-27T06:05:53.907Z,8.00
2018-07-27T06:08:21.434Z,6.47
2018-07-27T06:10:49.035Z,6.93
2018-07-27T06:13:17.037Z,6.00
2018-07-27T06:15:44.555Z,8.43
2018-07-27T06:18:12.385Z,8.40
2018-07-27T06:20:39.779Z,6.90
2018-07-27T06:23:08.039Z,6.17
2018-07-27T06:25:36.092Z,11.53
2018-07-27T06:28:04.195Z,6.63
2018-07-27T06:30:31.708Z,7.73
2018-07-27T06:32:59.212Z,7.03
2018-07-27T06:35:27.070Z,8.00
2018-07-27T06:37:54.972Z,7.50
2018-07-27T06:40:22.480Z,8.67
2018-07-27T06:42:50.286Z,8.03
2018-07-27T06:45:18.310Z,6.63
2018-07-27T06:47:45.786Z,8.07
2018-07-27T06:50:13.357Z,7.50
2018-07-27T06:52:40.897Z,9.07
2018-07-27T06:55:08.433Z,7.60
2018-07-27T06:57:36.031Z,5.90
2018-07-27T07:00:04.548Z,6.77
2018-07-27T07:02:32.829Z,5.40
2018-07-27T07:05:01.115Z,5.33
2018-07-27T07:07:28.611Z,6.70
2018-07-27T07:09:56.127Z,9.40
2018-07-27T07:12:24.595Z,6.83
2018-07-27T07:14:52.121Z,6.13
2018-07-27T07:17:19.643Z,6.53
2018-07-27T07:19:47.275Z,6.53
2018-07-27T07:22:15.507Z,6.60
2018-07-27T07:24:43.643Z,5.90
2018-07-27T07:27:11.202Z,6.30
2018-07-27T07:29:38.960Z,6.60
2018-07-27T07:32:06.492Z,6.10
2018-07-27T07:34:34.482Z,9.80
2018-07-27T07:37:02.114Z,6.20
2018-07-27T07:39:30.264Z,6.60
2018-07-27T07:41:58.258Z,5.83
2018-07-27T07:44:26.295Z,5.57
2018-07-27T07:46:53.772Z,10.70
2018-07-27T07:49:21.293Z,5.20
2018-07-27T07:51:48.820Z,4.67
2018-07-27T07:54:16.384Z,5.63
2018-07-27T07:56:43.983Z,5.87
2018-07-27T07:59:12.336Z,5.80
2018-07-27T08:01:39.900Z,5.40
2018-07-27T08:04:07.442Z,7.90
2018-07-27T08:06:34.995Z,5.53
2018-07-27T08:09:02.650Z,5.60
2018-07-27T08:11:30.273Z,4.80
2018-07-27T08:13:58.274Z,4.87
2018-07-27T08:16:25.807Z,4.77
2018-07-27T08:18:54.336Z,6.50
2018-07-27T08:21:24.072Z,8.70
2018-07-27T08:23:51.891Z,7.07
2018-07-27T08:26:56.327Z,7.33
2018-07-27T08:29:25.767Z,5.40
2018-07-27T08:31:54.351Z,6.10
2018-07-27T08:34:22.559Z,5.97
2018-07-27T08:36:51.415Z,5.47
2018-07-27T08:39:20.615Z,7.40
2018-07-27T08:41:48.815Z,6.13
2018-07-27T08:44:21.382Z,5.83
2018-07-27T08:46:48.913Z,4.97
2018-07-27T08:49:16.451Z,5.93
2018-07-27T08:51:43.975Z,7.40
2018-07-27T08:54:11.511Z,5.70
2018-07-27T08:56:39.907Z,5.07
2018-07-27T08:59:07.881Z,5.07
2018-07-27T09:01:35.520Z,5.10
2018-07-27T09:04:03.121Z,5.33
2018-07-27T09:06:31.039Z,5.63
2018-07-27T09:08:58.527Z,7.10
2018-07-27T09:11:26.107Z,5.77
2018-07-27T09:13:54.998Z,6.80
2018-07-27T09:16:23.021Z,9.27
2018-07-27T09:18:51.215Z,7.10
2018-07-27T09:21:18.797Z,6.93
2018-07-27T09:23:47.624Z,7.23
2018-07-27T09:26:15.592Z,6.00
2018-07-27T09:28:43.488Z,5.80
2018-07-27T09:31:11.140Z,6.20
2018-07-27T09:33:38.647Z,7.00
2018-07-27T09:36:06.815Z,5.60
2018-07-27T09:38:34.703Z,7.37
2018-07-27T09:41:02.251Z,8.50
2018-07-27T09:43:30.211Z,5.83
2018-07-27T09:45:57.714Z,5.67
2018-07-27T09:48:25.227Z,5.40
2018-07-27T09:50:53.639Z,5.90
2018-07-27T09:53:21.568Z,6.60
2018-07-27T09:55:49.810Z,5.20
2018-07-27T09:58:17.874Z,5.20
2018-07-27T10:00:53.063Z,5.00
2018-07-27T10:03:20.491Z,6.03
2018-07-27T10:05:48.026Z,4.87
2018-07-27T10:08:15.562Z,7.47
2018-07-27T10:10:43.010Z,8.57
2018-07-27T10:13:10.915Z,5.43
2018-07-27T10:15:38.503Z,4.90
2018-07-27T10:18:06.985Z,5.10
2018-07-27T10:20:34.487Z,5.60
2018-07-27T10:23:02.599Z,5.43
2018-07-27T10:25:31.061Z,5.37
2018-07-27T10:27:58.927Z,6.10
2018-07-27T10:30:26.902Z,5.87
2018-07-27T10:32:54.923Z,4.90
2018-07-27T10:35:23.111Z,5.67
2018-07-27T10:37:50.860Z,6.53
2018-07-27T10:40:18.352Z,5.43
2018-07-27T10:42:45.876Z,6.30
2018-07-27T10:45:13.966Z,5.70
2018-07-27T10:47:41.490Z,4.70
2018-07-27T10:50:09.083Z,6.20
2018-07-27T10:52:37.333Z,9.23
2018-07-27T10:55:04.836Z,8.07
2018-07-27T10:57:32.359Z,5.50
2018-07-27T11:00:00.281Z,7.00
2018-07-27T11:02:27.794Z,6.77
2018-07-27T11:04:55.866Z,5.50
2018-07-27T11:07:23.914Z,5.23
2018-07-27T11:09:51.503Z,5.73
2018-07-27T11:12:20.515Z,5.80
2018-07-27T11:14:47.973Z,5.77
2018-07-27T11:17:15.529Z,6.70
2018-07-27T11:19:43.035Z,5.87
2018-07-27T11:22:10.883Z,5.50
2018-07-27T11:24:39.061Z,5.33
2018-07-27T11:27:06.610Z,5.40
2018-07-27T11:29:34.895Z,6.00
2018-07-27T11:32:02.984Z,6.30
2018-07-27T11:34:30.946Z,5.00
2018-07-27T11:36:58.444Z,6.13
2018-07-27T11:39:25.931Z,4.53
2018-07-27T11:41:53.453Z,5.10
2018-07-27T11:44:21.338Z,5.30
2018-07-27T11:46:49.026Z,6.10
2018-07-27T11:49:17.362Z,4.67
2018-07-27T11:51:44.811Z,4.93
2018-07-27T11:54:12.894Z,5.60
2018-07-27T11:56:40.874Z,5.10
2018-07-27T11:59:08.394Z,5.07
2018-07-27T12:01:35.958Z,5.33
2018-07-27T12:04:03.461Z,6.90
2018-07-27T12:06:31.007Z,5.30
2018-07-27T12:08:58.572Z,5.80
2018-07-27T12:11:26.236Z,6.00
2018-07-27T12:13:54.577Z,4.77
2018-07-27T12:16:21.969Z,4.60
2018-07-27T12:18:49.460Z,5.43
2018-07-27T12:21:17.414Z,5.07
2018-07-27T12:23:46.320Z,3.80
2018-07-27T12:26:15.384Z,4.30
2018-07-27T12:28:43.400Z,4.67
2018-07-27T12:31:11.681Z,4.37
2018-07-27T12:33:39.193Z,4.57
2018-07-27T12:36:07.008Z,4.67
2018-07-27T12:38:34.556Z,4.87
2018-07-27T12:41:03.236Z,4.57
2018-07-27T12:43:31.162Z,5.13
2018-07-27T12:45:59.382Z,4.80
2018-07-27T12:48:29.401Z,4.60
2018-07-27T12:50:58.366Z,5.27
2018-07-27T12:53:29.263Z,4.53
2018-07-27T12:55:56.823Z,5.30
2018-07-27T12:58:26.082Z,4.60
2018-07-27T13:00:55.455Z,5.07
2018-07-27T13:03:25.441Z,5.30
2018-07-27T13:05:55.440Z,5.00
2018-07-27T13:08:23.000Z,5.00
2018-07-27T13:10:51.139Z,4.67
2018-07-27T13:13:19.078Z,4.70
2018-07-27T13:15:46.612Z,4.47
2018-07-27T13:18:14.130Z,4.93
2018-07-27T13:20:55.410Z,4.73
2018-07-27T13:23:23.898Z,4.70
2018-07-27T13:26:26.800Z,6.33
2018-07-27T13:28:40.512Z,5.00
2018-07-27T13:31:08.736Z,4.13
2018-07-27T13:33:36.579Z,5.00
2018-07-27T13:36:04.144Z,4.40
2018-07-27T13:38:32.151Z,4.50
2018-07-27T13:41:00.122Z,4.03
2018-07-27T13:43:28.251Z,5.07
2018-07-27T13:45:56.432Z,4.60
2018-07-27T13:48:24.249Z,4.30
2018-07-27T13:50:53.248Z,5.90
2018-07-27T13:53:21.409Z,4.47
2018-07-27T13:55:48.914Z,8.60
2018-07-27T13:58:16.460Z,4.90
2018-07-27T14:00:44.259Z,4.27
2018-07-27T14:03:11.778Z,3.30
2018-07-27T14:05:39.388Z,4.83
2018-07-27T14:08:06.914Z,4.30
2018-07-27T14:10:34.430Z,3.70
2018-07-27T14:13:02.929Z,3.70
2018-07-27T14:15:30.449Z,4.30
2018-07-27T14:17:58.447Z,5.07
2018-07-27T14:20:25.972Z,4.70
2018-07-27T14:22:54.090Z,4.87
2018-07-27T14:25:22.010Z,3.47
2018-07-27T14:27:50.051Z,3.37
2018-07-27T14:30:18.120Z,4.20
2018-07-27T14:32:46.089Z,3.53
2018-07-27T14:35:14.228Z,6.83
2018-07-27T14:37:42.274Z,3.67
2018-07-27T14:40:09.924Z,3.70
2018-07-27T14:42:37.716Z,5.60
2018-07-27T14:45:05.610Z,3.70
2018-07-27T14:47:33.536Z,3.60
2018-07-27T14:50:02.353Z,3.87
2018-07-27T14:52:31.252Z,3.90
2018-07-27T14:54:59.448Z,3.47
2018-07-27T14:57:27.188Z,4.93
2018-07-27T14:59:55.622Z,3.50
2018-07-27T15:02:23.982Z,4.23
2018-07-27T15:04:51.878Z,4.33
2018-07-27T15:07:19.676Z,3.50
2018-07-27T15:09:48.785Z,4.97
2018-07-27T15:12:17.800Z,3.20
2018-07-27T15:14:46.486Z,3.73
2018-07-27T15:17:14.175Z,3.40
2018-07-27T15:19:42.334Z,3.27
2018-07-27T15:22:10.635Z,3.00
2018-07-27T15:24:39.308Z,3.00
2018-07-27T15:27:07.935Z,3.23
2018-07-27T15:29:36.375Z,3.63
2018-07-27T15:32:04.818Z,3.40
2018-07-27T15:34:33.240Z,4.50
2018-07-27T15:37:01.069Z,4.30
2018-07-27T15:39:28.990Z,3.87
2018-07-27T15:41:57.393Z,3.13
2018-07-27T15:44:25.977Z,5.73
2018-07-27T15:46:53.890Z,2.87
2018-07-27T15:49:21.423Z,4.80
2018-07-27T15:51:48.986Z,3.10
2018-07-27T15:54:16.846Z,2.70
2018-07-27T15:56:44.375Z,2.83
2018-07-27T15:59:12.354Z,3.10
2018-07-27T16:01:39.903Z,3.33
2018-07-27T16:04:07.439Z,2.97
2018-07-27T16:06:34.986Z,3.47
2018-07-27T16:09:03.849Z,3.53
2018-07-27T16:11:31.720Z,3.50
2018-07-27T16:13:59.612Z,3.97
2018-07-27T16:16:27.098Z,4.90
2018-07-27T16:18:54.920Z,4.50
2018-07-27T16:21:24.066Z,3.63
2018-07-27T16:23:51.608Z,3.40
2018-07-27T16:26:19.649Z,4.50
2018-07-27T16:28:47.824Z,4.03
2018-07-27T16:31:15.357Z,3.47
2018-07-27T16:33:42.872Z,4.80
2018-07-27T16:40:47.672Z,4.13
2018-07-27T16:43:15.194Z,3.30
2018-07-27T16:45:44.107Z,2.90
2018-07-27T16:48:11.711Z,3.40
2018-07-27T16:50:39.242Z,3.60
2018-07-27T16:53:06.796Z,3.50
2018-07-27T16:55:35.044Z,3.93
2018-07-27T16:58:02.577Z,3.83
2018-07-27T17:00:30.115Z,3.87
2018-07-27T17:02:57.665Z,3.97
2018-07-27T17:05:25.167Z,5.20
2018-07-27T17:07:52.775Z,5.30
2018-07-27T17:10:20.698Z,3.80
2018-07-27T17:12:49.434Z,7.17
2018-07-27T17:15:17.239Z,7.83
2018-07-27T17:17:45.314Z,4.40
2018-07-27T17:20:13.280Z,4.80
2018-07-27T17:22:41.136Z,6.77
2018-07-27T17:25:09.902Z,4.23
2018-07-27T17:27:37.375Z,4.40
2018-07-27T17:30:06.479Z,4.40
2018-07-27T17:32:34.610Z,5.80
2018-07-27T17:35:03.076Z,7.10
2018-07-27T17:37:30.995Z,5.27
2018-07-27T17:39:58.585Z,5.90
2018-07-27T17:42:26.695Z,5.07
2018-07-27T17:44:54.601Z,5.37
2018-07-27T17:47:22.135Z,4.80
2018-07-27T17:49:49.641Z,5.00
2018-07-27T17:52:17.178Z,5.70
2018-07-27T17:54:45.064Z,5.60
2018-07-27T17:57:12.570Z,5.33
2018-07-27T17:59:40.089Z,6.00
2018-07-27T18:02:08.059Z,5.20
2018-07-27T18:04:36.900Z,5.80
2018-07-27T18:07:05.421Z,6.83
2018-07-27T18:09:33.415Z,4.43
2018-07-27T18:12:01.121Z,5.33
2018-07-27T18:14:28.930Z,4.50
2018-07-27T18:16:57.510Z,4.60
2018-07-27T18:19:25.023Z,6.60
2018-07-27T18:21:53.426Z,4.40
2018-07-27T18:24:21.591Z,5.00
2018-07-27T18:26:49.111Z,8.30
2018-07-27T18:29:17.175Z,5.77
2018-07-27T18:31:44.687Z,4.47
2018-07-27T18:34:12.703Z,4.60
2018-07-27T18:36:40.217Z,5.30
2018-07-27T18:39:10.103Z,12.17
2018-07-27T18:41:38.007Z,7.30
2018-07-27T18:44:06.550Z,6.33
2018-07-27T18:46:34.067Z,5.70
2018-07-27T18:49:01.575Z,5.80
2018-07-27T18:51:29.681Z,6.57
2018-07-27T18:53:57.258Z,5.17
2018-07-27T18:56:24.822Z,6.07
2018-07-27T18:58:52.364Z,6.00
2018-07-27T19:01:20.456Z,8.43
2018-07-27T19:03:48.660Z,5.57
2018-07-27T19:06:16.634Z,6.00
2018-07-27T19:08:44.201Z,7.03
2018-07-27T19:11:12.371Z,6.30
2018-07-27T19:13:40.341Z,5.83
2018-07-27T19:16:09.161Z,5.80
2018-07-27T19:18:36.672Z,5.73
2018-07-27T19:21:04.280Z,5.00
2018-07-27T19:23:32.157Z,10.10
2018-07-27T19:25:59.968Z,11.60
2018-07-27T19:28:27.521Z,10.17
2018-07-27T19:30:55.717Z,7.83
2018-07-27T19:33:24.041Z,13.17
2018-07-27T19:35:51.958Z,6.27
2018-07-27T19:38:19.968Z,7.60
2018-07-27T19:40:47.481Z,6.60
2018-07-27T19:43:15.324Z,8.20
2018-07-27T19:45:43.161Z,7.90
2018-07-27T19:48:10.673Z,6.00
2018-07-27T19:50:38.286Z,6.77
2018-07-27T19:53:05.844Z,6.80
2018-07-27T19:55:33.618Z,9.80
2018-07-27T19:58:01.240Z,7.27
2018-07-27T20:00:29.128Z,7.03
2018-07-27T20:02:57.278Z,6.00
2018-07-27T20:05:24.784Z,5.27
2018-07-27T20:07:52.291Z,5.33
2018-07-27T20:10:20.092Z,8.67
2018-07-27T20:12:48.008Z,7.60
2018-07-27T20:15:15.841Z,5.80
2018-07-27T20:17:43.728Z,6.17
2018-07-27T20:20:11.283Z,6.67
2018-07-27T20:22:39.088Z,8.73
2018-07-27T20:25:07.596Z,7.80
2018-07-27T20:27:35.404Z,9.63
2018-07-27T20:30:03.556Z,11.03
2018-07-27T20:32:31.808Z,10.53
2018-07-27T20:35:00.121Z,6.90
2018-07-27T20:37:27.623Z,5.87
2018-07-27T20:39:55.343Z,7.43
2018-07-27T20:42:24.150Z,8.83
2018-07-27T20:44:51.999Z,6.33
2018-07-27T20:47:19.765Z,9.37
2018-07-27T20:49:47.222Z,7.63
2018-07-27T20:52:15.353Z,10.73
2018-07-27T20:54:43.198Z,8.27
2018-07-27T20:57:11.532Z,7.70
2018-07-27T21:01:08.884Z,7.13
2018-07-27T21:03:36.422Z,6.80
2018-07-27T21:06:04.928Z,10.43
2018-07-27T21:08:32.723Z,10.43
2018-07-27T21:11:01.690Z,10.60
2018-07-27T21:13:29.567Z,8.87
2018-07-27T21:15:57.554Z,6.50
2018-07-27T21:18:25.080Z,7.53
2018-07-27T21:20:53.535Z,8.43
2018-07-27T21:23:22.071Z,11.20
2018-07-27T21:25:50.809Z,6.60
2018-07-27T21:28:18.326Z,5.53
2018-07-27T21:30:46.303Z,6.83
2018-07-27T21:33:14.842Z,6.73
2018-07-27T21:35:42.506Z,7.80
2018-07-27T21:38:10.515Z,8.70
2018-07-27T21:40:38.039Z,9.60
2018-07-27T21:43:05.807Z,8.37
2018-07-27T21:45:33.742Z,9.53
2018-07-27T21:48:01.289Z,8.93
2018-07-27T21:50:29.140Z,8.93
2018-07-27T21:52:57.385Z,7.90
2018-07-27T21:55:24.913Z,7.93
2018-07-27T21:57:52.847Z,7.03
2018-07-27T22:00:20.668Z,9.50
2018-07-27T22:02:48.268Z,7.47
2018-07-27T22:05:16.336Z,8.87
2018-07-27T22:07:44.601Z,8.90
2018-07-27T22:10:12.848Z,9.17
2018-07-27T22:12:40.747Z,8.40
2018-07-27T22:15:18.012Z,8.60
2018-07-27T22:17:47.896Z,7.70
2018-07-27T22:20:18.105Z,7.63
2018-07-27T22:22:52.440Z,6.13
2018-07-27T22:25:23.806Z,7.47
2018-07-27T22:27:55.092Z,9.00
2018-07-27T22:30:26.165Z,11.83
2018-07-27T22:32:53.777Z,10.60
2018-07-27T22:35:21.324Z,10.43
2018-07-27T22:37:48.915Z,10.90
2018-07-27T22:40:17.208Z,11.37
2018-07-27T22:42:45.352Z,9.10
2018-07-27T22:45:13.281Z,12.10
2018-07-27T22:47:41.224Z,10.70
2018-07-27T22:50:08.824Z,8.43
2018-07-27T22:52:37.211Z,7.60
2018-07-27T22:55:06.372Z,7.67
2018-07-27T22:57:33.896Z,7.80
2018-07-27T23:00:01.465Z,8.60
2018-07-27T23:02:29.417Z,11.23
2018-07-27T23:04:57.580Z,6.70
2018-07-27T23:07:25.512Z,10.73
2018-07-27T23:09:53.401Z,9.10
2018-07-27T23:12:21.400Z,9.47
2018-07-27T23:14:49.718Z,10.00
2018-07-27T23:17:17.242Z,10.23
2018-07-27T23:19:44.785Z,8.07
2018-07-27T23:22:12.856Z,8.77
2018-07-27T23:24:41.750Z,8.33
2018-07-27T23:27:09.623Z,8.30
2018-07-27T23:29:37.544Z,7.10
2018-07-27T23:32:06.130Z,9.77
2018-07-27T23:34:33.672Z,8.93
2018-07-27T23:37:01.167Z,7.93
2018-07-27T23:39:29.471Z,8.53
2018-07-27T23:41:57.814Z,8.63
2018-07-27T23:44:25.746Z,10.77
2018-07-27T23:46:55.039Z,9.40
2018-07-27T23:49:23.409Z,11.20
2018-07-27T23:51:50.975Z,8.10
2018-07-27T23:54:18.896Z,8.90
2018-07-27T23:56:46.474Z,6.27
2018-07-27T23:59:14.798Z,9.37
